KGCK/GCK METAR and TAF weather

Enter ICAO airport designator
Station Type Date Time Source
KGCK METAR 2024/06/15 22:54 UTC NOAA

KGCK 152254Z 22016G25KT 10SM BKN100 34/13 A2972 RMK AO2 PK WND 22026/2206 LTG DSNT E AND SE SLP024 T03440128


Station Type Date Time Source
KGCK Decoded METAR 2024/06/15 22:54 UTC NOAA

GARDEN CITY REGIONAL AIRPORT, KS, United States (KGCK) 37-55N 100-43W 877M
Jun 15, 2024 - 06:54 PM EDT / 2024.06.15 2254 UTC
Wind: from the SW (220 degrees) at 18 MPH (16 KT) gusting to 29 MPH (25 KT):0
Visibility: 10 mile(s):0
Sky conditions: mostly cloudy
Weather: Lightning observed
Temperature: 93.9 F (34.4 C)
Dew Point: 55.0 F (12.8 C)
Relative Humidity: 27%
Pressure (altimeter): 29.72 in. Hg (1006 hPa)
ob: KGCK 152254Z 22016G25KT 10SM BKN100 34/13 A2972 RMK AO2 PK WND 22026/2206 LTG DSNT E AND SE SLP024 T03440128
cycle: 23

Station Type Date Time Source
KGCK TAF 2024/06/15 18:22 UTC NOAA